sensor_id;sensor_type;location;lat;lon;timestamp;temperature;humidity
4451;DHT22;2238;50.180;9.230;2022-12-18T00:00:55;-5.80;99.90
4451;DHT22;2238;50.180;9.230;2022-12-18T00:03:56;-5.80;99.90
4451;DHT22;2238;50.180;9.230;2022-12-18T00:06:57;-5.80;99.90
4451;DHT22;2238;50.180;9.230;2022-12-18T00:09:58;-5.70;99.90
4451;DHT22;2238;50.180;9.230;2022-12-18T00:12:58;-5.70;99.90
4451;DHT22;2238;50.180;9.230;2022-12-18T00:16:19;-5.60;99.90
4451;DHT22;2238;50.180;9.230;2022-12-18T00:19:21;-5.60;99.90
4451;DHT22;2238;50.180;9.230;2022-12-18T00:22:21;-5.60;99.90
4451;DHT22;2238;50.180;9.230;2022-12-18T00:25:22;-5.70;99.90
4451;DHT22;2238;50.180;9.230;2022-12-18T00:28:23;-5.70;99.90
4451;DHT22;2238;50.180;9.230;2022-12-18T00:31:24;-5.60;99.90
4451;DHT22;2238;50.180;9.230;2022-12-18T00:34:25;-5.70;99.90
4451;DHT22;2238;50.180;9.230;2022-12-18T00:37:25;-5.70;99.90
4451;DHT22;2238;50.180;9.230;2022-12-18T00:40:26;-5.60;99.90
4451;DHT22;2238;50.180;9.230;2022-12-18T00:43:27;-5.60;99.90
4451;DHT22;2238;50.180;9.230;2022-12-18T00:46:27;-5.70;99.90
4451;DHT22;2238;50.180;9.230;2022-12-18T00:49:28;-5.60;99.90
4451;DHT22;2238;50.180;9.230;2022-12-18T00:52:29;-5.70;99.90
4451;DHT22;2238;50.180;9.230;2022-12-18T00:55:29;-5.70;99.90
4451;DHT22;2238;50.180;9.230;2022-12-18T00:58:30;-5.70;99.90
4451;DHT22;2238;50.180;9.230;2022-12-18T01:01:31;-5.60;99.90
4451;DHT22;2238;50.180;9.230;2022-12-18T01:04:33;-5.70;99.90
4451;DHT22;2238;50.180;9.230;2022-12-18T01:07:34;-5.80;99.90
4451;DHT22;2238;50.180;9.230;2022-12-18T01:10:34;-5.70;99.90
4451;DHT22;2238;50.180;9.230;2022-12-18T01:13:35;-5.70;99.90
4451;DHT22;2238;50.180;9.230;2022-12-18T01:16:36;-5.70;99.90
4451;DHT22;2238;50.180;9.230;2022-12-18T01:19:36;-5.80;99.90
4451;DHT22;2238;50.180;9.230;2022-12-18T01:22:37;-5.80;99.90
4451;DHT22;2238;50.180;9.230;2022-12-18T01:25:38;-5.70;99.90
4451;DHT22;2238;50.180;9.230;2022-12-18T01:28:39;-5.70;99.90
4451;DHT22;2238;50.180;9.230;2022-12-18T01:31:40;-5.60;99.90
4451;DHT22;2238;50.180;9.230;2022-12-18T01:34:40;-5.60;99.90
4451;DHT22;2238;50.180;9.230;2022-12-18T01:37:41;-5.70;99.90
4451;DHT22;2238;50.180;9.230;2022-12-18T01:40:41;-5.60;99.90
4451;DHT22;2238;50.180;9.230;2022-12-18T01:43:55;-5.60;99.90
4451;DHT22;2238;50.180;9.230;2022-12-18T01:46:57;-5.60;99.90
4451;DHT22;2238;50.180;9.230;2022-12-18T01:49:59;-5.60;99.90
4451;DHT22;2238;50.180;9.230;2022-12-18T01:53:07;-5.50;99.90
4451;DHT22;2238;50.180;9.230;2022-12-18T01:56:14;-5.60;99.90
4451;DHT22;2238;50.180;9.230;2022-12-18T01:59:15;-5.60;99.90
4451;DHT22;2238;50.180;9.230;2022-12-18T02:02:16;-5.70;99.90
4451;DHT22;2238;50.180;9.230;2022-12-18T02:05:23;-5.70;99.90
4451;DHT22;2238;50.180;9.230;2022-12-18T02:08:41;-5.70;99.90
4451;DHT22;2238;50.180;9.230;2022-12-18T02:15:02;-5.90;99.90
4451;DHT22;2238;50.180;9.230;2022-12-18T02:18:10;-5.70;99.90
4451;DHT22;2238;50.180;9.230;2022-12-18T02:24:35;-5.70;99.90
4451;DHT22;2238;50.180;9.230;2022-12-18T02:27:40;-5.70;99.90
4451;DHT22;2238;50.180;9.230;2022-12-18T02:30:44;-5.60;99.90
4451;DHT22;2238;50.180;9.230;2022-12-18T02:33:47;-5.70;99.90
4451;DHT22;2238;50.180;9.230;2022-12-18T02:36:49;-5.80;99.90
4451;DHT22;2238;50.180;9.230;2022-12-18T02:39:51;-5.80;99.90
4451;DHT22;2238;50.180;9.230;2022-12-18T02:42:53;-5.60;99.90
4451;DHT22;2238;50.180;9.230;2022-12-18T02:45:57;-5.70;99.90
4451;DHT22;2238;50.180;9.230;2022-12-18T02:50:02;-5.80;99.90
4451;DHT22;2238;50.180;9.230;2022-12-18T02:56:20;-5.80;99.90
4451;DHT22;2238;50.180;9.230;2022-12-18T02:59:30;-5.80;99.90
4451;DHT22;2238;50.180;9.230;2022-12-18T03:05:51;-5.60;99.90
4451;DHT22;2238;50.180;9.230;2022-12-18T03:08:59;-5.60;99.90
4451;DHT22;2238;50.180;9.230;2022-12-18T03:12:26;-5.60;99.90
4451;DHT22;2238;50.180;9.230;2022-12-18T03:15:35;-5.50;99.90
4451;DHT22;2238;50.180;9.230;2022-12-18T03:18:42;-5.50;99.90
4451;DHT22;2238;50.180;9.230;2022-12-18T03:21:49;-5.60;99.90
4451;DHT22;2238;50.180;9.230;2022-12-18T03:24:51;-5.70;99.90
4451;DHT22;2238;50.180;9.230;2022-12-18T03:27:55;-5.80;99.90
4451;DHT22;2238;50.180;9.230;2022-12-18T03:30:59;-5.80;99.90
4451;DHT22;2238;50.180;9.230;2022-12-18T03:34:03;-5.70;99.90
4451;DHT22;2238;50.180;9.230;2022-12-18T03:37:05;-5.60;99.90
4451;DHT22;2238;50.180;9.230;2022-12-18T03:40:07;-5.60;99.90
4451;DHT22;2238;50.180;9.230;2022-12-18T03:43:16;-5.50;99.90
4451;DHT22;2238;50.180;9.230;2022-12-18T03:50:18;-5.50;99.90
4451;DHT22;2238;50.180;9.230;2022-12-18T03:56:39;-5.50;99.90
4451;DHT22;2238;50.180;9.230;2022-12-18T03:59:41;-5.70;99.90
4451;DHT22;2238;50.180;9.230;2022-12-18T04:02:47;-5.80;99.90
4451;DHT22;2238;50.180;9.230;2022-12-18T04:05:50;-5.90;99.90
4451;DHT22;2238;50.180;9.230;2022-12-18T04:08:52;-5.70;99.90
4451;DHT22;2238;50.180;9.230;2022-12-18T04:11:53;-5.60;99.90
4451;DHT22;2238;50.180;9.230;2022-12-18T04:14:53;-5.70;99.90
4451;DHT22;2238;50.180;9.230;2022-12-18T04:17:54;-5.60;99.90
4451;DHT22;2238;50.180;9.230;2022-12-18T04:20:55;-5.50;99.90
4451;DHT22;2238;50.180;9.230;2022-12-18T04:23:55;-5.60;99.90
4451;DHT22;2238;50.180;9.230;2022-12-18T04:26:56;-6.00;99.90
4451;DHT22;2238;50.180;9.230;2022-12-18T04:29:56;-6.00;99.90
4451;DHT22;2238;50.180;9.230;2022-12-18T04:32:57;-5.80;99.90
4451;DHT22;2238;50.180;9.230;2022-12-18T04:35:58;-5.60;99.90
4451;DHT22;2238;50.180;9.230;2022-12-18T04:38:58;-5.80;99.90
4451;DHT22;2238;50.180;9.230;2022-12-18T04:41:59;-6.00;99.90
4451;DHT22;2238;50.180;9.230;2022-12-18T04:45:00;-5.90;99.90
4451;DHT22;2238;50.180;9.230;2022-12-18T04:48:02;-5.90;99.90
4451;DHT22;2238;50.180;9.230;2022-12-18T04:51:04;-5.80;99.90
4451;DHT22;2238;50.180;9.230;2022-12-18T04:54:05;-5.90;99.90
4451;DHT22;2238;50.180;9.230;2022-12-18T04:57:05;-6.00;99.90
4451;DHT22;2238;50.180;9.230;2022-12-18T05:00:06;-6.00;99.90
4451;DHT22;2238;50.180;9.230;2022-12-18T05:03:07;-6.00;99.90
4451;DHT22;2238;50.180;9.230;2022-12-18T05:06:08;-6.00;99.90
4451;DHT22;2238;50.180;9.230;2022-12-18T05:09:08;-6.00;99.90
4451;DHT22;2238;50.180;9.230;2022-12-18T05:12:09;-6.00;99.90
4451;DHT22;2238;50.180;9.230;2022-12-18T05:15:10;-6.10;99.90
4451;DHT22;2238;50.180;9.230;2022-12-18T05:18:10;-6.20;99.90
4451;DHT22;2238;50.180;9.230;2022-12-18T05:21:11;-6.20;99.90
4451;DHT22;2238;50.180;9.230;2022-12-18T05:24:12;-6.20;99.90
4451;DHT22;2238;50.180;9.230;2022-12-18T05:27:12;-6.10;99.90
4451;DHT22;2238;50.180;9.230;2022-12-18T05:30:14;-6.10;99.90
4451;DHT22;2238;50.180;9.230;2022-12-18T05:33:15;-6.20;99.90
4451;DHT22;2238;50.180;9.230;2022-12-18T05:36:15;-6.10;99.90
4451;DHT22;2238;50.180;9.230;2022-12-18T05:39:16;-6.10;99.90
4451;DHT22;2238;50.180;9.230;2022-12-18T05:42:17;-6.20;99.90
4451;DHT22;2238;50.180;9.230;2022-12-18T05:45:17;-6.30;99.90
4451;DHT22;2238;50.180;9.230;2022-12-18T05:48:18;-6.30;99.90
4451;DHT22;2238;50.180;9.230;2022-12-18T05:51:21;-6.10;99.90
4451;DHT22;2238;50.180;9.230;2022-12-18T05:54:22;-6.10;99.90
4451;DHT22;2238;50.180;9.230;2022-12-18T05:57:23;-6.10;99.90
4451;DHT22;2238;50.180;9.230;2022-12-18T06:00:23;-6.00;99.90
4451;DHT22;2238;50.180;9.230;2022-12-18T06:03:24;-5.90;99.90
4451;DHT22;2238;50.180;9.230;2022-12-18T06:06:26;-5.90;99.90
4451;DHT22;2238;50.180;9.230;2022-12-18T06:09:29;-5.90;99.90
4451;DHT22;2238;50.180;9.230;2022-12-18T06:12:29;-5.80;99.90
4451;DHT22;2238;50.180;9.230;2022-12-18T06:15:30;-5.80;99.90
4451;DHT22;2238;50.180;9.230;2022-12-18T06:18:32;-5.70;99.90
4451;DHT22;2238;50.180;9.230;2022-12-18T06:21:33;-5.70;99.90
4451;DHT22;2238;50.180;9.230;2022-12-18T06:24:34;-5.70;99.90
4451;DHT22;2238;50.180;9.230;2022-12-18T06:27:34;-5.60;99.90
4451;DHT22;2238;50.180;9.230;2022-12-18T06:30:35;-5.60;99.90
4451;DHT22;2238;50.180;9.230;2022-12-18T06:33:36;-5.60;99.90
4451;DHT22;2238;50.180;9.230;2022-12-18T06:36:37;-5.80;99.90
4451;DHT22;2238;50.180;9.230;2022-12-18T06:39:38;-5.80;99.90
4451;DHT22;2238;50.180;9.230;2022-12-18T06:42:38;-5.80;99.90
4451;DHT22;2238;50.180;9.230;2022-12-18T06:45:39;-5.80;99.90
4451;DHT22;2238;50.180;9.230;2022-12-18T06:48:40;-5.80;99.90
4451;DHT22;2238;50.180;9.230;2022-12-18T06:51:40;-5.80;99.90
4451;DHT22;2238;50.180;9.230;2022-12-18T06:54:41;-5.80;99.90
4451;DHT22;2238;50.180;9.230;2022-12-18T06:57:42;-5.90;99.90
4451;DHT22;2238;50.180;9.230;2022-12-18T07:00:43;-5.90;99.90
4451;DHT22;2238;50.180;9.230;2022-12-18T07:03:43;-5.90;99.90
4451;DHT22;2238;50.180;9.230;2022-12-18T07:06:44;-5.80;99.90
4451;DHT22;2238;50.180;9.230;2022-12-18T07:09:44;-5.80;99.90
4451;DHT22;2238;50.180;9.230;2022-12-18T07:12:45;-5.80;99.90
4451;DHT22;2238;50.180;9.230;2022-12-18T07:15:46;-5.70;99.90
4451;DHT22;2238;50.180;9.230;2022-12-18T07:18:47;-5.80;99.90
4451;DHT22;2238;50.180;9.230;2022-12-18T07:21:47;-5.80;99.90
4451;DHT22;2238;50.180;9.230;2022-12-18T07:24:49;-5.90;99.90
4451;DHT22;2238;50.180;9.230;2022-12-18T07:27:50;-5.70;99.90
4451;DHT22;2238;50.180;9.230;2022-12-18T07:30:50;-5.80;99.90
4451;DHT22;2238;50.180;9.230;2022-12-18T07:33:51;-5.80;99.90
4451;DHT22;2238;50.180;9.230;2022-12-18T07:36:52;-5.90;99.90
4451;DHT22;2238;50.180;9.230;2022-12-18T07:39:53;-5.90;99.90
4451;DHT22;2238;50.180;9.230;2022-12-18T07:42:53;-5.90;99.90
4451;DHT22;2238;50.180;9.230;2022-12-18T07:45:54;-5.90;99.90
4451;DHT22;2238;50.180;9.230;2022-12-18T07:48:55;-5.90;99.90
4451;DHT22;2238;50.180;9.230;2022-12-18T07:51:56;-6.00;99.90
4451;DHT22;2238;50.180;9.230;2022-12-18T07:54:57;-5.90;99.90
4451;DHT22;2238;50.180;9.230;2022-12-18T07:58:01;-5.90;99.90
4451;DHT22;2238;50.180;9.230;2022-12-18T08:01:07;-5.90;99.90
4451;DHT22;2238;50.180;9.230;2022-12-18T08:04:08;-5.90;99.90
4451;DHT22;2238;50.180;9.230;2022-12-18T08:07:08;-5.90;99.90
4451;DHT22;2238;50.180;9.230;2022-12-18T08:10:09;-5.90;99.90
4451;DHT22;2238;50.180;9.230;2022-12-18T08:13:10;-5.90;99.90
4451;DHT22;2238;50.180;9.230;2022-12-18T08:16:10;-5.80;99.90
4451;DHT22;2238;50.180;9.230;2022-12-18T08:19:11;-5.80;99.90
4451;DHT22;2238;50.180;9.230;2022-12-18T08:22:12;-5.80;99.90
4451;DHT22;2238;50.180;9.230;2022-12-18T08:25:12;-6.70;99.90
4451;DHT22;2238;50.180;9.230;2022-12-18T08:28:13;-5.90;99.90
4451;DHT22;2238;50.180;9.230;2022-12-18T08:31:14;-5.90;99.90
4451;DHT22;2238;50.180;9.230;2022-12-18T08:34:14;-5.90;99.90
4451;DHT22;2238;50.180;9.230;2022-12-18T08:37:15;-5.90;99.90
4451;DHT22;2238;50.180;9.230;2022-12-18T08:40:15;-5.90;99.90
4451;DHT22;2238;50.180;9.230;2022-12-18T08:43:16;-5.90;99.90
4451;DHT22;2238;50.180;9.230;2022-12-18T08:46:40;-5.80;99.90
4451;DHT22;2238;50.180;9.230;2022-12-18T08:49:41;-5.80;99.90
4451;DHT22;2238;50.180;9.230;2022-12-18T08:52:41;-5.80;99.90
4451;DHT22;2238;50.180;9.230;2022-12-18T08:55:42;-5.80;99.90
4451;DHT22;2238;50.180;9.230;2022-12-18T08:58:43;-5.60;99.90
4451;DHT22;2238;50.180;9.230;2022-12-18T09:01:44;-5.50;99.90
4451;DHT22;2238;50.180;9.230;2022-12-18T09:04:47;-5.50;99.90
4451;DHT22;2238;50.180;9.230;2022-12-18T09:07:48;-5.30;99.90
4451;DHT22;2238;50.180;9.230;2022-12-18T09:10:49;-5.40;99.90
4451;DHT22;2238;50.180;9.230;2022-12-18T09:13:50;-5.40;99.90
4451;DHT22;2238;50.180;9.230;2022-12-18T09:16:51;-5.30;99.90
4451;DHT22;2238;50.180;9.230;2022-12-18T09:19:52;-5.00;99.90
4451;DHT22;2238;50.180;9.230;2022-12-18T09:22:52;-4.80;99.90
4451;DHT22;2238;50.180;9.230;2022-12-18T09:25:58;-4.60;99.90
4451;DHT22;2238;50.180;9.230;2022-12-18T09:28:59;-4.40;99.90
4451;DHT22;2238;50.180;9.230;2022-12-18T09:32:00;-4.30;99.90
4451;DHT22;2238;50.180;9.230;2022-12-18T09:35:00;-3.90;99.90
4451;DHT22;2238;50.180;9.230;2022-12-18T09:38:01;-3.90;99.90
4451;DHT22;2238;50.180;9.230;2022-12-18T09:41:48;-3.60;99.90
4451;DHT22;2238;50.180;9.230;2022-12-18T09:44:50;-3.50;99.90
4451;DHT22;2238;50.180;9.230;2022-12-18T09:47:52;-3.50;99.90
4451;DHT22;2238;50.180;9.230;2022-12-18T09:50:58;-3.70;99.90
4451;DHT22;2238;50.180;9.230;2022-12-18T09:57:42;-2.90;99.90
4451;DHT22;2238;50.180;9.230;2022-12-18T10:00:43;-3.10;99.90
4451;DHT22;2238;50.180;9.230;2022-12-18T10:03:44;-3.40;99.90
4451;DHT22;2238;50.180;9.230;2022-12-18T10:06:46;-2.60;99.90
4451;DHT22;2238;50.180;9.230;2022-12-18T10:10:13;-3.00;99.90
4451;DHT22;2238;50.180;9.230;2022-12-18T10:16:40;-3.30;99.90
4451;DHT22;2238;50.180;9.230;2022-12-18T10:26:06;-4.10;99.90
4451;DHT22;2238;50.180;9.230;2022-12-18T10:29:13;-4.10;99.90
4451;DHT22;2238;50.180;9.230;2022-12-18T10:32:25;-4.40;99.90
4451;DHT22;2238;50.180;9.230;2022-12-18T10:54:21;-4.50;99.90
4451;DHT22;2238;50.180;9.230;2022-12-18T10:57:39;-4.20;99.90
4451;DHT22;2238;50.180;9.230;2022-12-18T11:00:41;-4.10;99.90
4451;DHT22;2238;50.180;9.230;2022-12-18T11:04:04;-4.50;99.90
4451;DHT22;2238;50.180;9.230;2022-12-18T11:07:08;-4.40;99.90
4451;DHT22;2238;50.180;9.230;2022-12-18T11:10:19;-4.30;99.90
4451;DHT22;2238;50.180;9.230;2022-12-18T11:13:23;-4.30;99.90
4451;DHT22;2238;50.180;9.230;2022-12-18T11:16:24;-4.50;99.90
4451;DHT22;2238;50.180;9.230;2022-12-18T11:19:36;-4.60;99.90
4451;DHT22;2238;50.180;9.230;2022-12-18T11:22:37;-4.50;99.90
4451;DHT22;2238;50.180;9.230;2022-12-18T11:25:39;-4.50;99.90
4451;DHT22;2238;50.180;9.230;2022-12-18T11:28:43;-4.50;99.90
4451;DHT22;2238;50.180;9.230;2022-12-18T11:31:44;-4.60;99.90
4451;DHT22;2238;50.180;9.230;2022-12-18T11:34:48;-4.10;99.90
4451;DHT22;2238;50.180;9.230;2022-12-18T11:37:59;-4.40;99.90
4451;DHT22;2238;50.180;9.230;2022-12-18T11:41:28;-4.50;99.90
4451;DHT22;2238;50.180;9.230;2022-12-18T11:44:52;-4.20;99.90
4451;DHT22;2238;50.180;9.230;2022-12-18T11:48:03;-4.30;99.90
4451;DHT22;2238;50.180;9.230;2022-12-18T11:51:11;-4.50;99.90
4451;DHT22;2238;50.180;9.230;2022-12-18T11:54:15;-4.40;99.90
4451;DHT22;2238;50.180;9.230;2022-12-18T11:57:39;-4.60;99.90
4451;DHT22;2238;50.180;9.230;2022-12-18T12:01:04;-4.50;99.90
4451;DHT22;2238;50.180;9.230;2022-12-18T12:07:24;-4.50;99.90
4451;DHT22;2238;50.180;9.230;2022-12-18T12:24:02;-4.30;99.90
4451;DHT22;2238;50.180;9.230;2022-12-18T12:30:29;-4.10;99.90
4451;DHT22;2238;50.180;9.230;2022-12-18T12:33:52;-4.20;99.90
4451;DHT22;2238;50.180;9.230;2022-12-18T12:40:18;-4.20;99.90
4451;DHT22;2238;50.180;9.230;2022-12-18T12:43:31;-4.10;99.90
4451;DHT22;2238;50.180;9.230;2022-12-18T12:46:37;-3.90;99.90
4451;DHT22;2238;50.180;9.230;2022-12-18T12:49:39;-4.00;99.90
4451;DHT22;2238;50.180;9.230;2022-12-18T12:52:46;-3.80;99.90
4451;DHT22;2238;50.180;9.230;2022-12-18T12:55:49;-3.80;99.90
4451;DHT22;2238;50.180;9.230;2022-12-18T13:02:22;-3.80;99.90
4451;DHT22;2238;50.180;9.230;2022-12-18T13:05:33;-3.90;99.90
4451;DHT22;2238;50.180;9.230;2022-12-18T13:08:56;-3.70;99.90
4451;DHT22;2238;50.180;9.230;2022-12-18T13:12:02;-3.90;99.90
4451;DHT22;2238;50.180;9.230;2022-12-18T13:18:38;-4.20;99.90
4451;DHT22;2238;50.180;9.230;2022-12-18T13:21:38;-4.30;99.90
4451;DHT22;2238;50.180;9.230;2022-12-18T13:24:39;-4.20;99.90
4451;DHT22;2238;50.180;9.230;2022-12-18T13:28:07;-4.00;99.90
4451;DHT22;2238;50.180;9.230;2022-12-18T13:31:06;-4.10;99.90
4451;DHT22;2238;50.180;9.230;2022-12-18T13:34:18;-4.10;99.90
4451;DHT22;2238;50.180;9.230;2022-12-18T13:43:53;-4.00;99.90
4451;DHT22;2238;50.180;9.230;2022-12-18T13:46:54;-3.80;99.90
4451;DHT22;2238;50.180;9.230;2022-12-18T13:49:55;-3.90;99.90
4451;DHT22;2238;50.180;9.230;2022-12-18T13:52:57;-4.10;99.90
4451;DHT22;2238;50.180;9.230;2022-12-18T13:55:58;-3.80;99.90
4451;DHT22;2238;50.180;9.230;2022-12-18T13:59:17;-3.30;99.90
4451;DHT22;2238;50.180;9.230;2022-12-18T14:02:22;-3.80;99.90
4451;DHT22;2238;50.180;9.230;2022-12-18T14:05:31;-4.50;99.90
4451;DHT22;2238;50.180;9.230;2022-12-18T14:08:37;-4.10;99.90
4451;DHT22;2238;50.180;9.230;2022-12-18T14:11:38;-4.00;99.90
4451;DHT22;2238;50.180;9.230;2022-12-18T14:14:42;-3.80;99.90
4451;DHT22;2238;50.180;9.230;2022-12-18T14:17:44;-3.80;99.90
4451;DHT22;2238;50.180;9.230;2022-12-18T14:20:49;-3.90;99.90
4451;DHT22;2238;50.180;9.230;2022-12-18T14:24:11;-3.90;99.90
4451;DHT22;2238;50.180;9.230;2022-12-18T14:27:20;-4.00;99.90
4451;DHT22;2238;50.180;9.230;2022-12-18T14:33:31;-3.90;99.90
4451;DHT22;2238;50.180;9.230;2022-12-18T14:36:32;-3.80;99.90
4451;DHT22;2238;50.180;9.230;2022-12-18T14:39:33;-3.80;99.90
4451;DHT22;2238;50.180;9.230;2022-12-18T14:42:33;-3.80;99.90
4451;DHT22;2238;50.180;9.230;2022-12-18T14:45:42;-2.90;99.90
4451;DHT22;2238;50.180;9.230;2022-12-18T14:48:46;-3.80;99.90
4451;DHT22;2238;50.180;9.230;2022-12-18T14:51:53;-3.70;99.90
4451;DHT22;2238;50.180;9.230;2022-12-18T14:54:54;-3.70;99.90
4451;DHT22;2238;50.180;9.230;2022-12-18T14:57:57;-3.70;99.90
4451;DHT22;2238;50.180;9.230;2022-12-18T15:00:58;-3.50;99.90
4451;DHT22;2238;50.180;9.230;2022-12-18T15:03:59;-3.60;99.90
4451;DHT22;2238;50.180;9.230;2022-12-18T15:07:19;-3.70;99.90
4451;DHT22;2238;50.180;9.230;2022-12-18T15:10:26;-3.80;99.90
4451;DHT22;2238;50.180;9.230;2022-12-18T15:13:27;-3.80;99.90
4451;DHT22;2238;50.180;9.230;2022-12-18T15:16:28;-3.80;99.90
4451;DHT22;2238;50.180;9.230;2022-12-18T15:19:36;-3.80;99.90
4451;DHT22;2238;50.180;9.230;2022-12-18T15:22:37;-3.80;99.90
4451;DHT22;2238;50.180;9.230;2022-12-18T15:25:38;-3.80;99.90
4451;DHT22;2238;50.180;9.230;2022-12-18T15:28:50;-3.80;99.90
4451;DHT22;2238;50.180;9.230;2022-12-18T15:32:20;-3.80;99.90
4451;DHT22;2238;50.180;9.230;2022-12-18T15:35:22;-3.90;99.90
4451;DHT22;2238;50.180;9.230;2022-12-18T15:38:23;-3.80;99.90
4451;DHT22;2238;50.180;9.230;2022-12-18T15:41:24;-3.80;99.90
4451;DHT22;2238;50.180;9.230;2022-12-18T15:44:25;-3.80;99.90
4451;DHT22;2238;50.180;9.230;2022-12-18T15:47:26;-3.70;99.90
4451;DHT22;2238;50.180;9.230;2022-12-18T15:50:26;-3.70;99.90
4451;DHT22;2238;50.180;9.230;2022-12-18T15:53:32;-3.70;99.90
4451;DHT22;2238;50.180;9.230;2022-12-18T15:56:33;-3.70;99.90
4451;DHT22;2238;50.180;9.230;2022-12-18T15:59:56;-3.70;99.90
4451;DHT22;2238;50.180;9.230;2022-12-18T16:02:58;-3.60;99.90
4451;DHT22;2238;50.180;9.230;2022-12-18T16:05:59;-3.60;99.90
4451;DHT22;2238;50.180;9.230;2022-12-18T16:09:02;-3.60;99.90
4451;DHT22;2238;50.180;9.230;2022-12-18T16:12:03;-2.90;99.90
4451;DHT22;2238;50.180;9.230;2022-12-18T16:15:05;-3.40;99.90
4451;DHT22;2238;50.180;9.230;2022-12-18T16:18:05;-3.40;99.90
4451;DHT22;2238;50.180;9.230;2022-12-18T16:21:08;-3.40;99.90
4451;DHT22;2238;50.180;9.230;2022-12-18T16:24:16;-3.40;99.90
4451;DHT22;2238;50.180;9.230;2022-12-18T16:27:17;-4.20;99.90
4451;DHT22;2238;50.180;9.230;2022-12-18T16:30:26;-3.40;99.90
4451;DHT22;2238;50.180;9.230;2022-12-18T16:33:28;-3.40;99.90
4451;DHT22;2238;50.180;9.230;2022-12-18T16:36:28;-3.30;99.90
4451;DHT22;2238;50.180;9.230;2022-12-18T16:39:29;-3.30;99.90
4451;DHT22;2238;50.180;9.230;2022-12-18T16:42:31;-3.20;99.90
4451;DHT22;2238;50.180;9.230;2022-12-18T16:45:31;-3.20;99.90
4451;DHT22;2238;50.180;9.230;2022-12-18T16:48:33;-3.20;99.90
4451;DHT22;2238;50.180;9.230;2022-12-18T16:51:34;-3.20;99.90
4451;DHT22;2238;50.180;9.230;2022-12-18T16:54:34;-3.10;99.90
4451;DHT22;2238;50.180;9.230;2022-12-18T16:57:36;-3.90;99.90
4451;DHT22;2238;50.180;9.230;2022-12-18T17:00:37;-3.10;99.90
4451;DHT22;2238;50.180;9.230;2022-12-18T17:03:38;-3.00;99.90
4451;DHT22;2238;50.180;9.230;2022-12-18T17:06:41;-3.00;99.90
4451;DHT22;2238;50.180;9.230;2022-12-18T17:09:41;-3.00;99.90
4451;DHT22;2238;50.180;9.230;2022-12-18T17:12:42;-3.00;99.90
4451;DHT22;2238;50.180;9.230;2022-12-18T17:15:43;-3.00;99.90
4451;DHT22;2238;50.180;9.230;2022-12-18T17:18:43;-3.00;99.90
4451;DHT22;2238;50.180;9.230;2022-12-18T17:21:47;-3.00;99.90
4451;DHT22;2238;50.180;9.230;2022-12-18T17:24:48;-3.00;99.90
4451;DHT22;2238;50.180;9.230;2022-12-18T17:27:51;-2.80;99.90
4451;DHT22;2238;50.180;9.230;2022-12-18T17:30:53;-2.90;99.90
4451;DHT22;2238;50.180;9.230;2022-12-18T17:33:53;-2.90;99.90
4451;DHT22;2238;50.180;9.230;2022-12-18T17:36:54;-2.90;99.90
4451;DHT22;2238;50.180;9.230;2022-12-18T17:39:55;-2.90;99.90
4451;DHT22;2238;50.180;9.230;2022-12-18T17:42:55;-2.90;99.90
4451;DHT22;2238;50.180;9.230;2022-12-18T17:46:00;-2.90;99.90
4451;DHT22;2238;50.180;9.230;2022-12-18T17:49:02;-2.90;99.90
4451;DHT22;2238;50.180;9.230;2022-12-18T17:52:02;-2.90;99.90
4451;DHT22;2238;50.180;9.230;2022-12-18T17:55:03;-1.90;99.90
4451;DHT22;2238;50.180;9.230;2022-12-18T17:58:04;-2.80;99.90
4451;DHT22;2238;50.180;9.230;2022-12-18T18:01:05;-2.90;99.90
4451;DHT22;2238;50.180;9.230;2022-12-18T18:04:06;-2.90;99.90
4451;DHT22;2238;50.180;9.230;2022-12-18T18:07:07;-2.80;99.90
4451;DHT22;2238;50.180;9.230;2022-12-18T18:10:08;-2.80;99.90
4451;DHT22;2238;50.180;9.230;2022-12-18T18:13:19;-2.80;99.90
4451;DHT22;2238;50.180;9.230;2022-12-18T18:16:41;-2.70;99.90
4451;DHT22;2238;50.180;9.230;2022-12-18T18:19:42;-2.80;99.90
4451;DHT22;2238;50.180;9.230;2022-12-18T18:22:44;-2.80;99.90
4451;DHT22;2238;50.180;9.230;2022-12-18T18:25:44;-2.80;99.90
4451;DHT22;2238;50.180;9.230;2022-12-18T18:28:46;-2.90;99.90
4451;DHT22;2238;50.180;9.230;2022-12-18T18:31:47;-2.80;99.90
4451;DHT22;2238;50.180;9.230;2022-12-18T18:34:47;-2.80;99.90
4451;DHT22;2238;50.180;9.230;2022-12-18T18:37:48;-2.80;99.90
4451;DHT22;2238;50.180;9.230;2022-12-18T18:41:00;-2.80;99.90
4451;DHT22;2238;50.180;9.230;2022-12-18T18:44:01;-2.80;99.90
4451;DHT22;2238;50.180;9.230;2022-12-18T18:47:01;-2.90;99.90
4451;DHT22;2238;50.180;9.230;2022-12-18T18:50:02;-1.90;99.90
4451;DHT22;2238;50.180;9.230;2022-12-18T18:53:02;-2.90;99.90
4451;DHT22;2238;50.180;9.230;2022-12-18T18:56:04;-2.90;99.90
4451;DHT22;2238;50.180;9.230;2022-12-18T18:59:05;-2.80;99.90
4451;DHT22;2238;50.180;9.230;2022-12-18T19:02:07;-2.80;99.90
4451;DHT22;2238;50.180;9.230;2022-12-18T19:05:08;-2.80;99.90
4451;DHT22;2238;50.180;9.230;2022-12-18T19:08:09;-2.80;99.90
4451;DHT22;2238;50.180;9.230;2022-12-18T19:11:10;-2.80;99.90
4451;DHT22;2238;50.180;9.230;2022-12-18T19:14:29;-2.80;99.90
4451;DHT22;2238;50.180;9.230;2022-12-18T19:17:30;-2.80;99.90
4451;DHT22;2238;50.180;9.230;2022-12-18T19:20:31;-2.90;99.90
4451;DHT22;2238;50.180;9.230;2022-12-18T19:23:32;-2.80;99.90
4451;DHT22;2238;50.180;9.230;2022-12-18T19:26:33;-2.90;99.90
4451;DHT22;2238;50.180;9.230;2022-12-18T19:29:33;-2.90;99.90
4451;DHT22;2238;50.180;9.230;2022-12-18T19:32:34;-2.90;99.90
4451;DHT22;2238;50.180;9.230;2022-12-18T19:35:35;-2.80;99.90
4451;DHT22;2238;50.180;9.230;2022-12-18T19:38:35;-2.90;99.90
4451;DHT22;2238;50.180;9.230;2022-12-18T19:41:36;-2.80;99.90
4451;DHT22;2238;50.180;9.230;2022-12-18T19:44:36;-2.90;99.90
4451;DHT22;2238;50.180;9.230;2022-12-18T19:47:37;-2.90;99.90
4451;DHT22;2238;50.180;9.230;2022-12-18T19:50:41;-2.90;99.90
4451;DHT22;2238;50.180;9.230;2022-12-18T19:53:42;-3.00;99.90
4451;DHT22;2238;50.180;9.230;2022-12-18T19:56:42;-3.00;99.90
4451;DHT22;2238;50.180;9.230;2022-12-18T19:59:43;-3.00;99.90
4451;DHT22;2238;50.180;9.230;2022-12-18T20:02:43;-3.80;99.90
4451;DHT22;2238;50.180;9.230;2022-12-18T20:05:44;-3.00;99.90
4451;DHT22;2238;50.180;9.230;2022-12-18T20:08:45;-3.00;99.90
4451;DHT22;2238;50.180;9.230;2022-12-18T20:11:46;-3.00;99.90
4451;DHT22;2238;50.180;9.230;2022-12-18T20:14:46;-3.10;99.90
4451;DHT22;2238;50.180;9.230;2022-12-18T20:17:47;-3.10;99.90
4451;DHT22;2238;50.180;9.230;2022-12-18T20:20:47;-3.10;99.90
4451;DHT22;2238;50.180;9.230;2022-12-18T20:23:48;-3.10;99.90
4451;DHT22;2238;50.180;9.230;2022-12-18T20:26:49;-3.10;99.90
4451;DHT22;2238;50.180;9.230;2022-12-18T20:29:50;-3.00;99.90
4451;DHT22;2238;50.180;9.230;2022-12-18T20:32:50;-3.10;99.90
4451;DHT22;2238;50.180;9.230;2022-12-18T20:35:51;-3.00;99.90
4451;DHT22;2238;50.180;9.230;2022-12-18T20:38:52;-3.00;99.90
4451;DHT22;2238;50.180;9.230;2022-12-18T20:41:53;-2.90;99.90
4451;DHT22;2238;50.180;9.230;2022-12-18T20:44:55;-2.90;99.90
4451;DHT22;2238;50.180;9.230;2022-12-18T20:47:56;-3.00;99.90
4451;DHT22;2238;50.180;9.230;2022-12-18T20:51:03;-2.90;99.90
4451;DHT22;2238;50.180;9.230;2022-12-18T20:54:04;-2.90;99.90
4451;DHT22;2238;50.180;9.230;2022-12-18T20:57:05;-2.80;99.90
4451;DHT22;2238;50.180;9.230;2022-12-18T21:00:06;-2.90;99.90
4451;DHT22;2238;50.180;9.230;2022-12-18T21:03:08;-2.90;99.90
4451;DHT22;2238;50.180;9.230;2022-12-18T21:06:10;-2.90;99.90
4451;DHT22;2238;50.180;9.230;2022-12-18T21:09:10;-2.90;99.90
4451;DHT22;2238;50.180;9.230;2022-12-18T21:12:12;-3.00;99.90
4451;DHT22;2238;50.180;9.230;2022-12-18T21:15:33;-3.10;99.90
4451;DHT22;2238;50.180;9.230;2022-12-18T21:18:35;-3.20;99.90
4451;DHT22;2238;50.180;9.230;2022-12-18T21:21:35;-3.20;99.90
4451;DHT22;2238;50.180;9.230;2022-12-18T21:24:36;-3.20;99.90
4451;DHT22;2238;50.180;9.230;2022-12-18T21:27:37;-3.10;99.90
4451;DHT22;2238;50.180;9.230;2022-12-18T21:30:37;-3.10;99.90